sensor_id;sensor_type;location;lat;lon;timestamp;P1;durP1;ratioP1;P2;durP2;ratioP2
7823;SDS011;3957;48.61947800;9.05303100;2023-03-29T00:00:42;4.67;;;2.37;;
7823;SDS011;3957;48.61947800;9.05303100;2023-03-29T00:01:42;2.60;;;2.40;;
7823;SDS011;3957;48.61947800;9.05303100;2023-03-29T00:02:43;4.30;;;2.83;;
7823;SDS011;3957;48.61947800;9.05303100;2023-03-29T00:03:47;3.07;;;2.60;;
7823;SDS011;3957;48.61947800;9.05303100;2023-03-29T00:04:48;5.20;;;2.97;;
7823;SDS011;3957;48.61947800;9.05303100;2023-03-29T00:05:49;3.72;;;2.80;;
7823;SDS011;3957;48.61947800;9.05303100;2023-03-29T00:06:50;3.90;;;2.70;;
7823;SDS011;3957;48.61947800;9.05303100;2023-03-29T00:07:50;3.15;;;2.85;;
7823;SDS011;3957;48.61947800;9.05303100;2023-03-29T00:08:53;3.55;;;2.83;;
7823;SDS011;3957;48.61947800;9.05303100;2023-03-29T00:09:53;3.80;;;2.60;;
7823;SDS011;3957;48.61947800;9.05303100;2023-03-29T00:10:54;6.27;;;2.70;;
7823;SDS011;3957;48.61947800;9.05303100;2023-03-29T00:11:55;2.95;;;2.60;;
7823;SDS011;3957;48.61947800;9.05303100;2023-03-29T00:12:56;4.70;;;2.40;;
7823;SDS011;3957;48.61947800;9.05303100;2023-03-29T00:13:57;3.20;;;2.58;;
7823;SDS011;3957;48.61947800;9.05303100;2023-03-29T00:14:57;3.17;;;2.33;;
7823;SDS011;3957;48.61947800;9.05303100;2023-03-29T00:15:58;3.07;;;2.40;;
7823;SDS011;3957;48.61947800;9.05303100;2023-03-29T00:16:58;3.00;;;2.43;;
7823;SDS011;3957;48.61947800;9.05303100;2023-03-29T00:17:59;2.73;;;2.17;;
7823;SDS011;3957;48.61947800;9.05303100;2023-03-29T00:18:59;3.33;;;2.60;;
7823;SDS011;3957;48.61947800;9.05303100;2023-03-29T00:20:00;4.00;;;2.80;;
7823;SDS011;3957;48.61947800;9.05303100;2023-03-29T00:21:00;3.73;;;2.60;;
7823;SDS011;3957;48.61947800;9.05303100;2023-03-29T00:22:01;2.60;;;2.30;;
7823;SDS011;3957;48.61947800;9.05303100;2023-03-29T00:23:02;3.42;;;2.40;;
7823;SDS011;3957;48.61947800;9.05303100;2023-03-29T00:24:02;3.28;;;2.65;;
7823;SDS011;3957;48.61947800;9.05303100;2023-03-29T00:25:03;3.87;;;2.60;;
7823;SDS011;3957;48.61947800;9.05303100;2023-03-29T00:26:04;4.18;;;2.70;;
7823;SDS011;3957;48.61947800;9.05303100;2023-03-29T00:27:05;4.57;;;2.72;;
7823;SDS011;3957;48.61947800;9.05303100;2023-03-29T00:28:06;3.60;;;2.60;;
7823;SDS011;3957;48.61947800;9.05303100;2023-03-29T00:29:06;3.07;;;2.60;;
7823;SDS011;3957;48.61947800;9.05303100;2023-03-29T00:30:07;4.22;;;2.85;;
7823;SDS011;3957;48.61947800;9.05303100;2023-03-29T00:31:10;3.00;;;2.47;;
7823;SDS011;3957;48.61947800;9.05303100;2023-03-29T00:32:13;3.83;;;2.60;;
7823;SDS011;3957;48.61947800;9.05303100;2023-03-29T00:33:14;2.75;;;2.50;;
7823;SDS011;3957;48.61947800;9.05303100;2023-03-29T00:34:16;3.67;;;2.65;;
7823;SDS011;3957;48.61947800;9.05303100;2023-03-29T00:35:16;3.08;;;2.45;;
7823;SDS011;3957;48.61947800;9.05303100;2023-03-29T00:36:16;4.43;;;2.53;;
7823;SDS011;3957;48.61947800;9.05303100;2023-03-29T00:37:17;2.53;;;2.33;;
7823;SDS011;3957;48.61947800;9.05303100;2023-03-29T00:38:18;3.65;;;2.63;;
7823;SDS011;3957;48.61947800;9.05303100;2023-03-29T00:39:19;3.40;;;2.60;;
7823;SDS011;3957;48.61947800;9.05303100;2023-03-29T00:40:19;3.47;;;2.80;;
7823;SDS011;3957;48.61947800;9.05303100;2023-03-29T00:41:20;4.00;;;2.60;;
7823;SDS011;3957;48.61947800;9.05303100;2023-03-29T00:42:20;4.78;;;2.80;;
7823;SDS011;3957;48.61947800;9.05303100;2023-03-29T00:43:22;3.75;;;2.80;;
7823;SDS011;3957;48.61947800;9.05303100;2023-03-29T00:46:00;4.82;;;3.08;;
7823;SDS011;3957;48.61947800;9.05303100;2023-03-29T00:47:01;2.55;;;2.35;;
7823;SDS011;3957;48.61947800;9.05303100;2023-03-29T00:48:04;4.10;;;2.58;;
7823;SDS011;3957;48.61947800;9.05303100;2023-03-29T00:49:08;4.45;;;2.75;;
7823;SDS011;3957;48.61947800;9.05303100;2023-03-29T00:51:29;3.75;;;2.97;;
7823;SDS011;3957;48.61947800;9.05303100;2023-03-29T00:52:33;4.47;;;2.70;;
7823;SDS011;3957;48.61947800;9.05303100;2023-03-29T00:53:35;3.20;;;2.90;;
7823;SDS011;3957;48.61947800;9.05303100;2023-03-29T00:54:38;4.68;;;3.00;;
7823;SDS011;3957;48.61947800;9.05303100;2023-03-29T00:55:43;3.15;;;2.58;;
7823;SDS011;3957;48.61947800;9.05303100;2023-03-29T00:56:48;3.05;;;2.75;;
7823;SDS011;3957;48.61947800;9.05303100;2023-03-29T00:57:50;6.30;;;2.95;;
7823;SDS011;3957;48.61947800;9.05303100;2023-03-29T01:00:07;4.13;;;2.90;;
7823;SDS011;3957;48.61947800;9.05303100;2023-03-29T01:01:10;3.28;;;2.45;;
7823;SDS011;3957;48.61947800;9.05303100;2023-03-29T01:02:20;3.33;;;2.80;;
7823;SDS011;3957;48.61947800;9.05303100;2023-03-29T01:03:22;4.07;;;3.13;;
7823;SDS011;3957;48.61947800;9.05303100;2023-03-29T01:04:31;5.22;;;2.90;;
7823;SDS011;3957;48.61947800;9.05303100;2023-03-29T01:05:40;4.68;;;2.72;;
7823;SDS011;3957;48.61947800;9.05303100;2023-03-29T01:06:55;3.42;;;2.67;;
7823;SDS011;3957;48.61947800;9.05303100;2023-03-29T01:08:00;2.85;;;2.55;;
7823;SDS011;3957;48.61947800;9.05303100;2023-03-29T01:09:06;4.78;;;2.70;;
7823;SDS011;3957;48.61947800;9.05303100;2023-03-29T01:10:10;3.97;;;2.95;;
7823;SDS011;3957;48.61947800;9.05303100;2023-03-29T01:11:16;3.17;;;2.50;;
7823;SDS011;3957;48.61947800;9.05303100;2023-03-29T01:12:22;3.13;;;2.83;;
7823;SDS011;3957;48.61947800;9.05303100;2023-03-29T01:13:30;5.65;;;3.00;;
7823;SDS011;3957;48.61947800;9.05303100;2023-03-29T01:14:40;4.10;;;2.90;;
7823;SDS011;3957;48.61947800;9.05303100;2023-03-29T01:15:49;3.45;;;2.70;;
7823;SDS011;3957;48.61947800;9.05303100;2023-03-29T01:16:50;2.72;;;2.25;;
7823;SDS011;3957;48.61947800;9.05303100;2023-03-29T01:17:53;4.72;;;2.90;;
7823;SDS011;3957;48.61947800;9.05303100;2023-03-29T01:18:57;3.90;;;3.10;;
7823;SDS011;3957;48.61947800;9.05303100;2023-03-29T01:20:00;4.43;;;2.50;;
7823;SDS011;3957;48.61947800;9.05303100;2023-03-29T01:21:14;3.20;;;2.90;;
7823;SDS011;3957;48.61947800;9.05303100;2023-03-29T01:22:30;4.22;;;2.80;;
7823;SDS011;3957;48.61947800;9.05303100;2023-03-29T01:29:02;3.28;;;2.65;;
7823;SDS011;3957;48.61947800;9.05303100;2023-03-29T01:30:31;3.10;;;2.80;;
7823;SDS011;3957;48.61947800;9.05303100;2023-03-29T01:31:36;2.88;;;2.53;;
7823;SDS011;3957;48.61947800;9.05303100;2023-03-29T01:32:48;4.13;;;2.70;;
7823;SDS011;3957;48.61947800;9.05303100;2023-03-29T01:33:57;3.40;;;2.70;;
7823;SDS011;3957;48.61947800;9.05303100;2023-03-29T01:35:06;3.28;;;2.60;;
7823;SDS011;3957;48.61947800;9.05303100;2023-03-29T01:36:20;3.13;;;2.50;;
7823;SDS011;3957;48.61947800;9.05303100;2023-03-29T01:38:34;4.18;;;2.50;;
7823;SDS011;3957;48.61947800;9.05303100;2023-03-29T01:39:48;3.72;;;2.80;;
7823;SDS011;3957;48.61947800;9.05303100;2023-03-29T01:40:48;3.33;;;2.50;;
7823;SDS011;3957;48.61947800;9.05303100;2023-03-29T01:48:34;4.50;;;2.95;;
7823;SDS011;3957;48.61947800;9.05303100;2023-03-29T01:49:52;3.65;;;2.70;;
7823;SDS011;3957;48.61947800;9.05303100;2023-03-29T01:52:13;5.57;;;2.65;;
7823;SDS011;3957;48.61947800;9.05303100;2023-03-29T01:53:21;4.88;;;2.53;;
7823;SDS011;3957;48.61947800;9.05303100;2023-03-29T01:54:29;4.90;;;2.40;;
7823;SDS011;3957;48.61947800;9.05303100;2023-03-29T01:55:35;6.30;;;2.63;;
7823;SDS011;3957;48.61947800;9.05303100;2023-03-29T01:56:39;4.68;;;2.38;;
7823;SDS011;3957;48.61947800;9.05303100;2023-03-29T01:57:43;5.80;;;3.03;;
7823;SDS011;3957;48.61947800;9.05303100;2023-03-29T01:58:47;2.95;;;2.33;;
7823;SDS011;3957;48.61947800;9.05303100;2023-03-29T01:59:51;2.33;;;2.08;;
7823;SDS011;3957;48.61947800;9.05303100;2023-03-29T02:00:55;2.70;;;2.30;;
7823;SDS011;3957;48.61947800;9.05303100;2023-03-29T02:01:57;4.88;;;2.30;;
7823;SDS011;3957;48.61947800;9.05303100;2023-03-29T02:03:01;3.92;;;2.30;;
7823;SDS011;3957;48.61947800;9.05303100;2023-03-29T02:04:09;2.85;;;2.35;;
7823;SDS011;3957;48.61947800;9.05303100;2023-03-29T02:05:12;2.65;;;1.88;;
7823;SDS011;3957;48.61947800;9.05303100;2023-03-29T02:06:18;10.38;;;2.30;;
7823;SDS011;3957;48.61947800;9.05303100;2023-03-29T02:07:24;2.95;;;2.20;;
7823;SDS011;3957;48.61947800;9.05303100;2023-03-29T02:08:29;3.55;;;2.08;;
7823;SDS011;3957;48.61947800;9.05303100;2023-03-29T02:09:31;2.88;;;2.22;;
7823;SDS011;3957;48.61947800;9.05303100;2023-03-29T02:10:37;3.13;;;2.05;;
7823;SDS011;3957;48.61947800;9.05303100;2023-03-29T02:11:38;2.42;;;2.22;;
7823;SDS011;3957;48.61947800;9.05303100;2023-03-29T02:12:42;4.55;;;2.35;;
7823;SDS011;3957;48.61947800;9.05303100;2023-03-29T02:13:42;3.17;;;2.38;;
7823;SDS011;3957;48.61947800;9.05303100;2023-03-29T02:14:43;2.27;;;2.03;;
7823;SDS011;3957;48.61947800;9.05303100;2023-03-29T02:15:44;6.97;;;2.13;;
7823;SDS011;3957;48.61947800;9.05303100;2023-03-29T02:16:46;3.00;;;2.30;;
7823;SDS011;3957;48.61947800;9.05303100;2023-03-29T02:17:48;3.67;;;2.20;;
7823;SDS011;3957;48.61947800;9.05303100;2023-03-29T02:18:50;2.33;;;2.13;;
7823;SDS011;3957;48.61947800;9.05303100;2023-03-29T02:19:59;2.90;;;2.00;;
7823;SDS011;3957;48.61947800;9.05303100;2023-03-29T02:21:23;2.38;;;2.00;;
7823;SDS011;3957;48.61947800;9.05303100;2023-03-29T02:24:17;2.35;;;1.98;;
7823;SDS011;3957;48.61947800;9.05303100;2023-03-29T02:25:21;3.75;;;2.30;;
7823;SDS011;3957;48.61947800;9.05303100;2023-03-29T02:26:23;3.58;;;2.20;;
7823;SDS011;3957;48.61947800;9.05303100;2023-03-29T02:27:25;3.85;;;2.10;;
7823;SDS011;3957;48.61947800;9.05303100;2023-03-29T02:28:28;2.33;;;1.90;;
7823;SDS011;3957;48.61947800;9.05303100;2023-03-29T02:29:30;3.03;;;2.00;;
7823;SDS011;3957;48.61947800;9.05303100;2023-03-29T02:30:41;4.20;;;2.20;;
7823;SDS011;3957;48.61947800;9.05303100;2023-03-29T02:31:51;3.88;;;2.10;;
7823;SDS011;3957;48.61947800;9.05303100;2023-03-29T02:33:00;2.08;;;1.88;;
7823;SDS011;3957;48.61947800;9.05303100;2023-03-29T02:34:10;3.03;;;2.03;;
7823;SDS011;3957;48.61947800;9.05303100;2023-03-29T02:35:21;2.28;;;2.08;;
7823;SDS011;3957;48.61947800;9.05303100;2023-03-29T02:36:43;2.42;;;2.03;;
7823;SDS011;3957;48.61947800;9.05303100;2023-03-29T02:37:49;2.13;;;1.75;;
7823;SDS011;3957;48.61947800;9.05303100;2023-03-29T02:38:53;3.75;;;2.40;;
7823;SDS011;3957;48.61947800;9.05303100;2023-03-29T02:39:58;2.35;;;2.08;;
7823;SDS011;3957;48.61947800;9.05303100;2023-03-29T02:41:00;3.40;;;1.80;;
7823;SDS011;3957;48.61947800;9.05303100;2023-03-29T02:42:02;3.15;;;2.15;;
7823;SDS011;3957;48.61947800;9.05303100;2023-03-29T02:43:04;5.60;;;2.00;;
7823;SDS011;3957;48.61947800;9.05303100;2023-03-29T02:44:06;2.03;;;1.60;;
7823;SDS011;3957;48.61947800;9.05303100;2023-03-29T02:45:13;2.58;;;2.00;;
7823;SDS011;3957;48.61947800;9.05303100;2023-03-29T02:46:16;2.45;;;2.17;;
7823;SDS011;3957;48.61947800;9.05303100;2023-03-29T02:47:21;2.30;;;1.70;;
7823;SDS011;3957;48.61947800;9.05303100;2023-03-29T02:48:27;3.63;;;2.20;;
7823;SDS011;3957;48.61947800;9.05303100;2023-03-29T02:49:31;3.55;;;2.00;;
7823;SDS011;3957;48.61947800;9.05303100;2023-03-29T02:50:34;1.97;;;1.80;;
7823;SDS011;3957;48.61947800;9.05303100;2023-03-29T02:51:36;2.70;;;2.05;;
7823;SDS011;3957;48.61947800;9.05303100;2023-03-29T02:52:38;3.30;;;1.63;;
7823;SDS011;3957;48.61947800;9.05303100;2023-03-29T02:54:17;3.20;;;2.00;;
7823;SDS011;3957;48.61947800;9.05303100;2023-03-29T02:55:15;2.70;;;2.20;;
7823;SDS011;3957;48.61947800;9.05303100;2023-03-29T02:56:17;2.38;;;1.70;;
7823;SDS011;3957;48.61947800;9.05303100;2023-03-29T02:57:20;2.22;;;1.90;;
7823;SDS011;3957;48.61947800;9.05303100;2023-03-29T02:58:25;2.72;;;1.80;;
7823;SDS011;3957;48.61947800;9.05303100;2023-03-29T02:59:27;2.42;;;1.90;;
7823;SDS011;3957;48.61947800;9.05303100;2023-03-29T03:00:29;2.28;;;2.00;;
7823;SDS011;3957;48.61947800;9.05303100;2023-03-29T03:01:29;2.20;;;1.70;;
7823;SDS011;3957;48.61947800;9.05303100;2023-03-29T03:02:30;2.17;;;1.90;;
7823;SDS011;3957;48.61947800;9.05303100;2023-03-29T03:03:30;5.72;;;2.13;;
7823;SDS011;3957;48.61947800;9.05303100;2023-03-29T03:04:33;2.97;;;1.80;;
7823;SDS011;3957;48.61947800;9.05303100;2023-03-29T03:05:35;3.25;;;1.90;;
7823;SDS011;3957;48.61947800;9.05303100;2023-03-29T03:06:36;2.50;;;1.80;;
7823;SDS011;3957;48.61947800;9.05303100;2023-03-29T03:07:39;2.40;;;1.92;;
7823;SDS011;3957;48.61947800;9.05303100;2023-03-29T03:08:39;2.50;;;1.90;;
7823;SDS011;3957;48.61947800;9.05303100;2023-03-29T03:09:41;3.20;;;2.10;;
7823;SDS011;3957;48.61947800;9.05303100;2023-03-29T03:10:42;4.10;;;2.10;;
7823;SDS011;3957;48.61947800;9.05303100;2023-03-29T03:11:43;5.00;;;2.00;;
7823;SDS011;3957;48.61947800;9.05303100;2023-03-29T03:12:43;2.75;;;1.80;;
7823;SDS011;3957;48.61947800;9.05303100;2023-03-29T03:13:44;2.57;;;1.90;;
7823;SDS011;3957;48.61947800;9.05303100;2023-03-29T03:14:44;2.25;;;1.80;;
7823;SDS011;3957;48.61947800;9.05303100;2023-03-29T03:15:45;1.87;;;1.67;;
7823;SDS011;3957;48.61947800;9.05303100;2023-03-29T03:16:48;2.22;;;1.67;;
7823;SDS011;3957;48.61947800;9.05303100;2023-03-29T03:17:49;2.63;;;1.85;;
7823;SDS011;3957;48.61947800;9.05303100;2023-03-29T03:18:50;3.42;;;2.10;;
7823;SDS011;3957;48.61947800;9.05303100;2023-03-29T03:19:51;2.50;;;1.88;;
7823;SDS011;3957;48.61947800;9.05303100;2023-03-29T03:20:58;2.72;;;1.80;;
7823;SDS011;3957;48.61947800;9.05303100;2023-03-29T03:22:00;1.85;;;1.58;;
7823;SDS011;3957;48.61947800;9.05303100;2023-03-29T03:23:01;2.83;;;2.00;;
7823;SDS011;3957;48.61947800;9.05303100;2023-03-29T03:24:03;2.70;;;1.85;;
7823;SDS011;3957;48.61947800;9.05303100;2023-03-29T03:25:04;2.47;;;1.65;;
7823;SDS011;3957;48.61947800;9.05303100;2023-03-29T03:26:05;3.35;;;2.17;;
7823;SDS011;3957;48.61947800;9.05303100;2023-03-29T03:27:07;3.00;;;1.98;;
7823;SDS011;3957;48.61947800;9.05303100;2023-03-29T03:28:08;2.40;;;2.03;;
7823;SDS011;3957;48.61947800;9.05303100;2023-03-29T03:29:08;3.23;;;2.00;;
7823;SDS011;3957;48.61947800;9.05303100;2023-03-29T03:30:27;2.72;;;1.90;;
7823;SDS011;3957;48.61947800;9.05303100;2023-03-29T03:31:50;3.08;;;1.98;;
7823;SDS011;3957;48.61947800;9.05303100;2023-03-29T03:33:09;2.50;;;1.70;;
7823;SDS011;3957;48.61947800;9.05303100;2023-03-29T03:34:29;2.10;;;1.90;;
7823;SDS011;3957;48.61947800;9.05303100;2023-03-29T03:35:30;3.15;;;1.75;;
7823;SDS011;3957;48.61947800;9.05303100;2023-03-29T03:36:31;2.25;;;1.90;;
7823;SDS011;3957;48.61947800;9.05303100;2023-03-29T03:37:34;3.17;;;1.80;;
7823;SDS011;3957;48.61947800;9.05303100;2023-03-29T03:38:36;2.00;;;1.80;;
7823;SDS011;3957;48.61947800;9.05303100;2023-03-29T03:39:38;1.88;;;1.77;;
7823;SDS011;3957;48.61947800;9.05303100;2023-03-29T03:40:41;2.38;;;2.00;;
7823;SDS011;3957;48.61947800;9.05303100;2023-03-29T03:41:41;2.03;;;1.83;;
7823;SDS011;3957;48.61947800;9.05303100;2023-03-29T03:42:42;2.93;;;1.60;;
7823;SDS011;3957;48.61947800;9.05303100;2023-03-29T03:43:43;2.95;;;1.90;;
7823;SDS011;3957;48.61947800;9.05303100;2023-03-29T03:44:47;2.80;;;1.90;;
7823;SDS011;3957;48.61947800;9.05303100;2023-03-29T03:46:07;2.00;;;1.70;;
7823;SDS011;3957;48.61947800;9.05303100;2023-03-29T03:47:08;3.03;;;1.85;;
7823;SDS011;3957;48.61947800;9.05303100;2023-03-29T03:48:10;2.53;;;1.70;;
7823;SDS011;3957;48.61947800;9.05303100;2023-03-29T03:49:29;2.10;;;1.90;;
7823;SDS011;3957;48.61947800;9.05303100;2023-03-29T03:50:31;2.05;;;1.60;;
7823;SDS011;3957;48.61947800;9.05303100;2023-03-29T03:51:32;2.50;;;1.73;;
7823;SDS011;3957;48.61947800;9.05303100;2023-03-29T03:52:33;3.35;;;2.05;;
7823;SDS011;3957;48.61947800;9.05303100;2023-03-29T03:53:34;2.78;;;1.70;;
7823;SDS011;3957;48.61947800;9.05303100;2023-03-29T03:54:44;2.50;;;1.80;;
7823;SDS011;3957;48.61947800;9.05303100;2023-03-29T03:56:23;2.33;;;1.70;;
7823;SDS011;3957;48.61947800;9.05303100;2023-03-29T03:57:45;1.70;;;1.60;;
7823;SDS011;3957;48.61947800;9.05303100;2023-03-29T03:58:48;1.77;;;1.63;;
7823;SDS011;3957;48.61947800;9.05303100;2023-03-29T03:59:51;1.98;;;1.70;;
7823;SDS011;3957;48.61947800;9.05303100;2023-03-29T04:00:59;2.85;;;1.70;;
7823;SDS011;3957;48.61947800;9.05303100;2023-03-29T04:02:11;2.28;;;1.63;;
7823;SDS011;3957;48.61947800;9.05303100;2023-03-29T04:03:12;3.00;;;1.60;;
7823;SDS011;3957;48.61947800;9.05303100;2023-03-29T04:04:14;1.60;;;1.50;;
7823;SDS011;3957;48.61947800;9.05303100;2023-03-29T04:05:28;2.73;;;1.50;;
7823;SDS011;3957;48.61947800;9.05303100;2023-03-29T04:06:29;2.25;;;1.52;;
7823;SDS011;3957;48.61947800;9.05303100;2023-03-29T04:07:47;2.20;;;1.50;;
7823;SDS011;3957;48.61947800;9.05303100;2023-03-29T04:09:06;1.60;;;1.40;;
7823;SDS011;3957;48.61947800;9.05303100;2023-03-29T04:10:12;2.17;;;1.60;;
7823;SDS011;3957;48.61947800;9.05303100;2023-03-29T04:11:23;1.52;;;1.40;;
7823;SDS011;3957;48.61947800;9.05303100;2023-03-29T04:12:24;1.77;;;1.60;;
7823;SDS011;3957;48.61947800;9.05303100;2023-03-29T04:13:25;3.80;;;1.50;;
7823;SDS011;3957;48.61947800;9.05303100;2023-03-29T04:14:52;3.13;;;1.58;;
7823;SDS011;3957;48.61947800;9.05303100;2023-03-29T04:15:54;2.50;;;1.40;;
7823;SDS011;3957;48.61947800;9.05303100;2023-03-29T04:16:59;4.70;;;1.38;;
7823;SDS011;3957;48.61947800;9.05303100;2023-03-29T04:18:21;3.38;;;1.38;;
7823;SDS011;3957;48.61947800;9.05303100;2023-03-29T04:19:26;1.70;;;1.30;;
7823;SDS011;3957;48.61947800;9.05303100;2023-03-29T04:20:27;1.52;;;1.27;;
7823;SDS011;3957;48.61947800;9.05303100;2023-03-29T04:21:29;3.33;;;1.47;;
7823;SDS011;3957;48.61947800;9.05303100;2023-03-29T04:22:29;1.93;;;1.40;;
7823;SDS011;3957;48.61947800;9.05303100;2023-03-29T04:23:30;1.90;;;1.50;;
7823;SDS011;3957;48.61947800;9.05303100;2023-03-29T04:24:30;5.70;;;1.60;;
7823;SDS011;3957;48.61947800;9.05303100;2023-03-29T04:25:52;2.97;;;1.50;;
7823;SDS011;3957;48.61947800;9.05303100;2023-03-29T04:27:14;1.50;;;1.40;;
7823;SDS011;3957;48.61947800;9.05303100;2023-03-29T04:28:14;3.67;;;1.50;;
7823;SDS011;3957;48.61947800;9.05303100;2023-03-29T04:29:24;1.23;;;1.13;;
7823;SDS011;3957;48.61947800;9.05303100;2023-03-29T04:30:33;2.95;;;1.50;;
7823;SDS011;3957;48.61947800;9.05303100;2023-03-29T04:31:49;2.67;;;1.20;;
7823;SDS011;3957;48.61947800;9.05303100;2023-03-29T04:32:50;1.63;;;1.30;;
7823;SDS011;3957;48.61947800;9.05303100;2023-03-29T04:33:51;1.55;;;1.30;;
7823;SDS011;3957;48.61947800;9.05303100;2023-03-29T04:34:53;1.88;;;1.40;;
7823;SDS011;3957;48.61947800;9.05303100;2023-03-29T04:35:53;1.80;;;1.43;;
7823;SDS011;3957;48.61947800;9.05303100;2023-03-29T04:36:55;1.80;;;1.45;;
7823;SDS011;3957;48.61947800;9.05303100;2023-03-29T04:37:57;3.67;;;1.30;;
7823;SDS011;3957;48.61947800;9.05303100;2023-03-29T04:38:58;1.93;;;1.20;;
7823;SDS011;3957;48.61947800;9.05303100;2023-03-29T04:40:01;1.50;;;1.30;;
7823;SDS011;3957;48.61947800;9.05303100;2023-03-29T04:41:11;2.65;;;1.30;;
7823;SDS011;3957;48.61947800;9.05303100;2023-03-29T04:42:27;1.80;;;1.30;;
7823;SDS011;3957;48.61947800;9.05303100;2023-03-29T04:43:28;1.80;;;1.20;;
7823;SDS011;3957;48.61947800;9.05303100;2023-03-29T04:44:40;2.80;;;1.35;;
7823;SDS011;3957;48.61947800;9.05303100;2023-03-29T04:45:43;2.58;;;1.10;;
7823;SDS011;3957;48.61947800;9.05303100;2023-03-29T04:46:48;2.60;;;1.10;;
7823;SDS011;3957;48.61947800;9.05303100;2023-03-29T04:47:52;2.10;;;1.35;;
7823;SDS011;3957;48.61947800;9.05303100;2023-03-29T04:48:55;1.27;;;1.17;;
7823;SDS011;3957;48.61947800;9.05303100;2023-03-29T04:50:06;3.05;;;1.33;;
7823;SDS011;3957;48.61947800;9.05303100;2023-03-29T04:51:15;1.30;;;1.20;;
7823;SDS011;3957;48.61947800;9.05303100;2023-03-29T04:52:17;1.65;;;1.27;;
7823;SDS011;3957;48.61947800;9.05303100;2023-03-29T04:53:17;1.50;;;0.90;;
7823;SDS011;3957;48.61947800;9.05303100;2023-03-29T04:54:18;1.13;;;1.00;;
7823;SDS011;3957;48.61947800;9.05303100;2023-03-29T04:55:34;1.67;;;1.08;;
7823;SDS011;3957;48.61947800;9.05303100;2023-03-29T04:56:35;1.63;;;1.40;;
7823;SDS011;3957;48.61947800;9.05303100;2023-03-29T04:57:55;3.00;;;1.30;;
7823;SDS011;3957;48.61947800;9.05303100;2023-03-29T04:59:07;2.85;;;1.40;;
7823;SDS011;3957;48.61947800;9.05303100;2023-03-29T05:00:08;1.55;;;1.15;;
7823;SDS011;3957;48.61947800;9.05303100;2023-03-29T05:01:36;1.30;;;1.10;;
7823;SDS011;3957;48.61947800;9.05303100;2023-03-29T05:02:36;1.57;;;1.10;;
7823;SDS011;3957;48.61947800;9.05303100;2023-03-29T05:03:37;2.50;;;1.35;;
7823;SDS011;3957;48.61947800;9.05303100;2023-03-29T05:04:48;3.33;;;1.40;;
7823;SDS011;3957;48.61947800;9.05303100;2023-03-29T05:05:50;1.90;;;1.30;;
7823;SDS011;3957;48.61947800;9.05303100;2023-03-29T05:06:51;2.00;;;1.40;;
7823;SDS011;3957;48.61947800;9.05303100;2023-03-29T05:07:51;3.75;;;1.45;;
7823;SDS011;3957;48.61947800;9.05303100;2023-03-29T05:08:58;2.00;;;1.10;;
7823;SDS011;3957;48.61947800;9.05303100;2023-03-29T05:10:05;1.85;;;1.20;;
7823;SDS011;3957;48.61947800;9.05303100;2023-03-29T05:11:06;4.53;;;1.40;;
7823;SDS011;3957;48.61947800;9.05303100;2023-03-29T05:12:09;1.70;;;1.20;;
7823;SDS011;3957;48.61947800;9.05303100;2023-03-29T05:13:21;2.05;;;1.30;;
7823;SDS011;3957;48.61947800;9.05303100;2023-03-29T05:14:21;3.23;;;1.50;;
7823;SDS011;3957;48.61947800;9.05303100;2023-03-29T05:15:22;2.88;;;1.40;;
7823;SDS011;3957;48.61947800;9.05303100;2023-03-29T05:16:23;1.55;;;1.20;;
7823;SDS011;3957;48.61947800;9.05303100;2023-03-29T05:17:28;2.80;;;1.45;;
7823;SDS011;3957;48.61947800;9.05303100;2023-03-29T05:18:37;1.70;;;1.23;;
7823;SDS011;3957;48.61947800;9.05303100;2023-03-29T05:19:37;2.03;;;1.50;;
7823;SDS011;3957;48.61947800;9.05303100;2023-03-29T05:20:38;1.70;;;1.40;;
7823;SDS011;3957;48.61947800;9.05303100;2023-03-29T05:21:42;2.40;;;1.38;;
7823;SDS011;3957;48.61947800;9.05303100;2023-03-29T05:22:46;1.88;;;1.40;;
7823;SDS011;3957;48.61947800;9.05303100;2023-03-29T05:24:01;1.23;;;1.13;;
7823;SDS011;3957;48.61947800;9.05303100;2023-03-29T05:25:23;1.40;;;1.30;;
7823;SDS011;3957;48.61947800;9.05303100;2023-03-29T05:26:25;2.22;;;1.33;;
7823;SDS011;3957;48.61947800;9.05303100;2023-03-29T05:27:28;1.73;;;1.20;;
7823;SDS011;3957;48.61947800;9.05303100;2023-03-29T05:28:35;1.88;;;1.20;;
7823;SDS011;3957;48.61947800;9.05303100;2023-03-29T05:29:37;1.17;;;1.08;;
7823;SDS011;3957;48.61947800;9.05303100;2023-03-29T05:30:58;1.65;;;1.42;;
7823;SDS011;3957;48.61947800;9.05303100;2023-03-29T05:32:03;2.50;;;1.20;;
7823;SDS011;3957;48.61947800;9.05303100;2023-03-29T05:33:04;3.08;;;1.40;;
7823;SDS011;3957;48.61947800;9.05303100;2023-03-29T05:34:06;2.85;;;1.50;;
7823;SDS011;3957;48.61947800;9.05303100;2023-03-29T05:35:09;1.58;;;1.38;;
7823;SDS011;3957;48.61947800;9.05303100;2023-03-29T05:36:12;2.20;;;1.40;;
7823;SDS011;3957;48.61947800;9.05303100;2023-03-29T05:37:18;2.25;;;1.40;;
7823;SDS011;3957;48.61947800;9.05303100;2023-03-29T05:38:24;3.00;;;1.20;;
7823;SDS011;3957;48.61947800;9.05303100;2023-03-29T05:39:25;3.92;;;1.40;;
7823;SDS011;3957;48.61947800;9.05303100;2023-03-29T05:40:26;2.43;;;1.40;;
7823;SDS011;3957;48.61947800;9.05303100;2023-03-29T05:41:55;2.30;;;1.25;;
7823;SDS011;3957;48.61947800;9.05303100;2023-03-29T05:43:03;1.80;;;1.20;;
7823;SDS011;3957;48.61947800;9.05303100;2023-03-29T05:44:03;3.90;;;1.20;;
7823;SDS011;3957;48.61947800;9.05303100;2023-03-29T05:45:05;2.95;;;1.30;;
7823;SDS011;3957;48.61947800;9.05303100;2023-03-29T05:46:06;1.88;;;1.45;;
7823;SDS011;3957;48.61947800;9.05303100;2023-03-29T05:47:13;2.75;;;1.40;;
7823;SDS011;3957;48.61947800;9.05303100;2023-03-29T05:48:13;1.80;;;1.23;;
7823;SDS011;3957;48.61947800;9.05303100;2023-03-29T05:49:16;1.52;;;1.35;;
7823;SDS011;3957;48.61947800;9.05303100;2023-03-29T05:50:50;2.45;;;1.50;;
7823;SDS011;3957;48.61947800;9.05303100;2023-03-29T05:51:52;2.75;;;1.40;;
7823;SDS011;3957;48.61947800;9.05303100;2023-03-29T05:52:56;2.30;;;1.25;;
7823;SDS011;3957;48.61947800;9.05303100;2023-03-29T05:53:57;2.10;;;1.40;;
7823;SDS011;3957;48.61947800;9.05303100;2023-03-29T05:54:57;2.90;;;1.50;;
7823;SDS011;3957;48.61947800;9.05303100;2023-03-29T05:55:59;1.55;;;1.30;;
7823;SDS011;3957;48.61947800;9.05303100;2023-03-29T05:57:01;1.60;;;1.15;;
7823;SDS011;3957;48.61947800;9.05303100;2023-03-29T05:58:02;2.28;;;1.30;;
7823;SDS011;3957;48.61947800;9.05303100;2023-03-29T05:59:05;2.55;;;1.40;;
7823;SDS011;3957;48.61947800;9.05303100;2023-03-29T06:00:07;2.47;;;1.20;;
7823;SDS011;3957;48.61947800;9.05303100;2023-03-29T06:01:32;1.30;;;1.20;;
7823;SDS011;3957;48.61947800;9.05303100;2023-03-29T06:02:38;2.45;;;1.27;;
7823;SDS011;3957;48.61947800;9.05303100;2023-03-29T06:03:38;2.25;;;1.40;;
7823;SDS011;3957;48.61947800;9.05303100;2023-03-29T06:04:39;1.40;;;1.20;;
7823;SDS011;3957;48.61947800;9.05303100;2023-03-29T06:06:10;2.20;;;1.42;;
7823;SDS011;3957;48.61947800;9.05303100;2023-03-29T06:07:11;2.17;;;1.23;;
7823;SDS011;3957;48.61947800;9.05303100;2023-03-29T06:08:14;2.47;;;1.20;;
7823;SDS011;3957;48.61947800;9.05303100;2023-03-29T06:09:27;2.80;;;1.40;;
7823;SDS011;3957;48.61947800;9.05303100;2023-03-29T06:10:33;2.42;;;1.27;;
7823;SDS011;3957;48.61947800;9.05303100;2023-03-29T06:11:50;2.92;;;1.48;;